Time;durP1;ratioP1;P1;durP2;ratioP2;P2;SDS_P1;SDS_P2;PMS_P1;PMS_P2;Temp;Humidity;BMP_temperature;BMP_pressure;BME280_temperature;BME280_humidity;BME280_pressure;Samples;Min_cycle;Max_cycle;Signal;HPM_P1;HPM_P2
2022/01/05 00:00:30;;;;;;;12.50;7.55;;;2.80;96.60;;;;;;4697165;30;20128;-74
2022/01/05 00:02:56;;;;;;;10.10;7.65;;;2.80;96.60;;;;;;4697199;30;20185;-74
2022/01/05 00:05:21;;;;;;;18.38;9.07;;;2.80;96.60;;;;;;4695971;30;20069;-74
2022/01/05 00:07:47;;;;;;;10.77;8.35;;;2.80;96.60;;;;;;4697132;30;20038;-74
2022/01/05 00:10:15;;;;;;;19.50;8.98;;;2.80;96.60;;;;;;4697155;30;20037;-74
2022/01/05 00:12:40;;;;;;;12.70;7.50;;;2.70;96.60;;;;;;4696976;30;20513;-74
2022/01/05 00:15:07;;;;;;;11.82;7.90;;;2.60;96.50;;;;;;4697184;30;20108;-74
2022/01/05 00:17:33;;;;;;;12.80;8.10;;;2.60;96.60;;;;;;4696886;30;20041;-74
2022/01/05 00:19:58;;;;;;;13.00;8.27;;;2.50;96.50;;;;;;4696911;30;20156;-74
2022/01/05 00:22:24;;;;;;;8.90;8.05;;;2.50;96.60;;;;;;4680981;30;20433;-74
2022/01/05 00:24:50;;;;;;;15.75;8.20;;;2.40;96.60;;;;;;4696818;30;20045;-74
2022/01/05 00:27:16;;;;;;;13.57;7.65;;;2.30;96.60;;;;;;4696786;30;20406;-74
2022/01/05 00:29:42;;;;;;;;;;;2.30;96.70;;;;;;4697242;30;20461;-74
2022/01/05 00:32:08;;;;;;;11.68;7.45;;;2.20;96.70;;;;;;4696656;30;19958;-74
2022/01/05 00:34:35;;;;;;;;;;;2.20;96.70;;;;;;4697008;30;20040;-74
2022/01/05 00:37:00;;;;;;;17.23;8.73;;;2.10;96.70;;;;;;4696666;30;19917;-74
2022/01/05 00:39:26;;;;;;;15.35;8.55;;;2.10;96.70;;;;;;4696458;30;20041;-74
2022/01/05 00:41:52;;;;;;;13.73;9.23;;;2.00;96.70;;;;;;4696549;30;20048;-74
2022/01/05 00:44:19;;;;;;;11.23;9.02;;;2.00;96.70;;;;;;4696553;30;20116;-74
2022/01/05 00:46:45;;;;;;;11.52;8.30;;;2.00;96.80;;;;;;4696326;30;20049;-74
2022/01/05 00:49:11;;;;;;;9.95;8.88;;;2.00;96.80;;;;;;4696477;30;20116;-74
2022/01/05 00:51:36;;;;;;;12.27;9.05;;;2.00;96.90;;;;;;4696413;30;20042;-74
2022/01/05 00:54:02;;;;;;;18.67;9.20;;;2.00;96.90;;;;;;4696482;30;20085;-74
2022/01/05 00:56:28;;;;;;;10.93;9.88;;;2.00;96.90;;;;;;4696595;30;20060;-74
2022/01/05 00:58:54;;;;;;;21.98;9.52;;;2.00;96.90;;;;;;4696319;30;20037;-74
2022/01/05 01:01:19;;;;;;;13.20;9.55;;;2.00;96.90;;;;;;4696148;30;20041;-74
2022/01/05 01:03:45;;;;;;;11.15;9.98;;;2.10;96.90;;;;;;4696208;30;20038;-74
2022/01/05 01:06:11;;;;;;;16.13;11.15;;;2.10;96.90;;;;;;4696061;30;20100;-74
2022/01/05 01:08:37;;;;;;;10.35;9.25;;;2.10;96.90;;;;;;4696171;30;20026;-74
2022/01/05 01:11:02;;;;;;;17.40;10.70;;;2.20;97.00;;;;;;4696095;30;20053;-74
2022/01/05 01:13:28;;;;;;;11.98;10.20;;;2.20;97.20;;;;;;4696081;30;20041;-73
2022/01/05 01:15:54;;;;;;;13.65;9.13;;;2.20;96.90;;;;;;4695968;30;20041;-74
2022/01/05 01:18:20;;;;;;;22.58;11.13;;;2.30;96.90;;;;;;4694896;30;20078;-74
2022/01/05 01:20:50;;;;;;;14.77;9.73;;;2.20;96.80;;;;;;4696041;30;20046;-74
2022/01/05 01:23:22;;;;;;;12.05;10.55;;;2.20;96.70;;;;;;4695999;30;20033;-74
2022/01/05 01:25:50;;;;;;;12.75;10.20;;;2.20;96.70;;;;;;4695836;30;20103;-74
2022/01/05 01:28:16;;;;;;;17.08;9.65;;;2.10;96.80;;;;;;4680225;30;20040;-74
2022/01/05 01:30:42;;;;;;;15.73;11.18;;;2.00;96.80;;;;;;4695770;30;20038;-74
2022/01/05 01:33:08;;;;;;;10.90;9.88;;;2.00;96.90;;;;;;4695246;30;20044;-74
2022/01/05 01:35:34;;;;;;;13.88;10.35;;;1.90;96.90;;;;;;4695838;30;20034;-74
2022/01/05 01:37:59;;;;;;;13.68;10.65;;;1.90;96.90;;;;;;4695653;30;20042;-73
2022/01/05 01:40:25;;;;;;;10.23;9.30;;;1.80;96.90;;;;;;4695949;30;20045;-74
2022/01/05 01:42:51;;;;;;;10.60;9.50;;;1.80;97.00;;;;;;4695595;30;20049;-73
2022/01/05 01:45:17;;;;;;;15.25;10.45;;;1.80;97.00;;;;;;4695331;30;20515;-74
2022/01/05 01:47:42;;;;;;;19.63;9.77;;;1.80;97.00;;;;;;4695527;30;20148;-73
2022/01/05 01:50:09;;;;;;;10.77;9.57;;;1.80;97.10;;;;;;4695370;30;20101;-74
2022/01/05 01:52:35;;;;;;;14.73;11.32;;;1.70;97.00;;;;;;4694296;30;20116;-74
2022/01/05 01:55:01;;;;;;;11.93;10.80;;;1.70;97.00;;;;;;4695575;30;20125;-74
2022/01/05 01:57:28;;;;;;;13.48;10.85;;;1.60;97.00;;;;;;4695406;30;20092;-74
2022/01/05 01:59:58;;;;;;;11.63;10.52;;;1.60;97.00;;;;;;4695338;30;20046;-74
2022/01/05 02:02:24;;;;;;;11.77;10.88;;;1.60;97.00;;;;;;4695438;30;20431;-74
2022/01/05 02:04:49;;;;;;;12.00;10.82;;;1.50;97.00;;;;;;4695262;30;20037;-74
2022/01/05 02:07:15;;;;;;;13.32;11.18;;;1.50;97.10;;;;;;4679824;30;20048;-74
2022/01/05 02:09:41;;;;;;;11.82;10.63;;;1.50;97.10;;;;;;4695251;30;20450;-74
2022/01/05 02:12:07;;;;;;;15.50;11.52;;;1.40;97.10;;;;;;4695178;30;20033;-74
2022/01/05 02:14:34;;;;;;;14.23;11.15;;;1.40;97.10;;;;;;4695235;30;20033;-73
2022/01/05 02:17:04;;;;;;;12.35;10.90;;;1.40;97.10;;;;;;4679587;30;20041;-74
2022/01/05 02:19:29;;;;;;;12.88;11.73;;;1.40;97.20;;;;;;4695204;30;20033;-73
2022/01/05 02:21:55;;;;;;;12.85;11.52;;;1.40;97.20;;;;;;4679559;30;20423;-74
2022/01/05 02:24:21;;;;;;;13.30;10.88;;;1.30;97.20;;;;;;4695049;30;20108;-74
2022/01/05 02:26:47;;;;;;;13.88;12.43;;;1.30;97.20;;;;;;4695018;30;20033;-74
2022/01/05 02:29:13;;;;;;;12.02;10.82;;;1.30;97.20;;;;;;4679579;30;20111;-74
2022/01/05 02:31:38;;;;;;;11.32;9.90;;;1.30;97.20;;;;;;4694857;30;20041;-74
2022/01/05 02:34:04;;;;;;;12.07;10.93;;;1.30;97.30;;;;;;4695010;30;20038;-73
2022/01/05 02:36:31;;;;;;;13.88;11.10;;;1.20;97.30;;;;;;4694965;30;20070;-74
2022/01/05 02:38:57;;;;;;;11.73;9.05;;;1.20;97.30;;;;;;4694846;30;20044;-74
2022/01/05 02:41:23;;;;;;;;;;;1.20;97.40;;;;;;4695222;30;20060;-74
2022/01/05 02:43:49;;;;;;;15.45;8.65;;;1.20;97.40;;;;;;4694566;30;20009;-75
2022/01/05 02:46:22;;;;;;;9.45;8.00;;;1.20;97.40;;;;;;4694192;30;20058;-75
2022/01/05 02:48:52;;;;;;;11.32;8.32;;;1.20;97.40;;;;;;4695022;30;20044;-74
2022/01/05 02:51:19;;;;;;;17.88;10.52;;;1.20;97.50;;;;;;4695066;30;20030;-74
2022/01/05 02:53:44;;;;;;;12.32;10.93;;;1.20;97.50;;;;;;4694686;30;20120;-74
2022/01/05 02:56:11;;;;;;;12.07;10.90;;;1.20;97.50;;;;;;4694735;30;20108;-73
2022/01/05 02:58:37;;;;;;;13.55;11.40;;;1.20;97.50;;;;;;4694810;30;20042;-73
2022/01/05 03:01:03;;;;;;;16.73;12.38;;;1.20;97.50;;;;;;4679172;30;20038;-74
2022/01/05 03:03:29;;;;;;;;;;;1.20;97.50;;;;;;4695138;30;20033;-74
2022/01/05 03:05:55;;;;;;;15.45;10.07;;;1.20;97.50;;;;;;4694546;30;20376;-73
2022/01/05 03:08:21;;;;;;;11.73;10.63;;;1.20;97.40;;;;;;4693513;30;20513;-74
2022/01/05 03:10:47;;;;;;;18.75;10.77;;;1.20;97.40;;;;;;4694527;30;20046;-74
2022/01/05 03:13:12;;;;;;;12.50;11.30;;;1.20;97.40;;;;;;4679017;30;20123;-74
2022/01/05 03:15:38;;;;;;;12.18;11.02;;;1.20;97.30;;;;;;4694625;30;20101;-74
2022/01/05 03:18:05;;;;;;;18.55;11.73;;;1.20;97.30;;;;;;4693513;30;20037;-74
2022/01/05 03:20:31;;;;;;;18.55;13.13;;;1.20;97.30;;;;;;4694634;30;20414;-74
2022/01/05 03:23:01;;;;;;;13.10;11.20;;;1.10;97.30;;;;;;4693386;30;20033;-74
2022/01/05 03:25:27;;;;;;;13.32;10.85;;;1.10;97.30;;;;;;4679032;30;20042;-74
2022/01/05 03:27:54;;;;;;;13.93;11.82;;;1.10;97.40;;;;;;4694532;30;20103;-74
2022/01/05 03:30:25;;;;;;;12.77;10.70;;;1.10;97.40;;;;;;4694239;30;20394;-74
2022/01/05 03:35:29;;;;;;;18.77;12.50;;;1.00;97.50;;;;;;4694346;30;20025;-75
2022/01/05 03:37:56;;;;;;;15.63;10.75;;;1.00;97.50;;;;;;4694349;30;20039;-74
2022/01/05 03:40:22;;;;;;;13.15;10.50;;;1.00;97.50;;;;;;4694372;30;20112;-74
2022/01/05 03:42:47;;;;;;;12.27;10.35;;;1.00;97.60;;;;;;4694672;30;20046;-74
2022/01/05 03:45:13;;;;;;;10.48;9.40;;;1.00;97.70;;;;;;4694147;30;20080;-74
2022/01/05 03:47:39;;;;;;;10.98;9.45;;;1.00;97.80;;;;;;4693271;30;20042;-74
2022/01/05 03:50:06;;;;;;;12.02;10.88;;;1.10;97.80;;;;;;4694291;30;20045;-74
2022/01/05 03:52:32;;;;;;;12.75;10.35;;;1.10;97.80;;;;;;4694730;30;20042;-74
2022/01/05 03:54:59;;;;;;;12.85;11.63;;;1.10;97.80;;;;;;4678699;30;20426;-74
2022/01/05 03:57:25;;;;;;;12.02;10.95;;;1.10;97.80;;;;;;4696923;30;20414;-73
2022/01/05 03:59:51;;;;;;;11.13;9.90;;;1.10;97.80;;;;;;4697413;30;20037;-74
2022/01/05 04:02:17;;;;;;;11.35;10.52;;;1.10;97.80;;;;;;4697270;30;20504;-74
2022/01/05 04:04:43;;;;;;;10.68;9.73;;;1.10;97.80;;;;;;4697215;30;20034;-74
2022/01/05 04:07:09;;;;;;;14.35;10.60;;;1.10;97.80;;;;;;4697047;30;20104;-74
2022/01/05 04:09:35;;;;;;;19.25;11.88;;;1.00;97.80;;;;;;4696000;30;20543;-74
2022/01/05 04:12:00;;;;;;;15.30;11.32;;;1.00;98.00;;;;;;4697204;30;20057;-74
2022/01/05 04:14:26;;;;;;;18.88;10.32;;;1.00;97.80;;;;;;4681571;30;20474;-74
2022/01/05 04:16:52;;;;;;;10.60;9.57;;;1.00;97.80;;;;;;4697186;30;20041;-74
2022/01/05 04:19:18;;;;;;;11.50;9.77;;;1.00;97.80;;;;;;4697055;30;20132;-74
2022/01/05 04:21:43;;;;;;;11.70;10.60;;;1.00;97.90;;;;;;4696971;30;20053;-74
2022/01/05 04:24:09;;;;;;;11.45;10.38;;;1.00;97.90;;;;;;4696958;30;20057;-74
2022/01/05 04:26:34;;;;;;;13.82;10.13;;;1.00;97.90;;;;;;4696704;30;20038;-74
2022/01/05 04:29:00;;;;;;;16.70;10.63;;;1.00;97.90;;;;;;4696892;30;20513;-74
2022/01/05 04:31:26;;;;;;;10.65;9.75;;;1.00;97.90;;;;;;4695677;30;20046;-74
2022/01/05 04:33:52;;;;;;;14.85;10.93;;;0.90;97.90;;;;;;4696818;30;20034;-74
2022/01/05 04:36:17;;;;;;;11.18;10.27;;;0.90;97.90;;;;;;4696741;30;20042;-74
2022/01/05 04:38:43;;;;;;;16.48;11.15;;;0.90;97.90;;;;;;4696711;30;20045;-74
2022/01/05 04:41:09;;;;;;;13.00;12.10;;;0.90;97.90;;;;;;4696728;30;20048;-73
2022/01/05 04:43:34;;;;;;;11.38;10.32;;;0.90;97.90;;;;;;4696629;30;20048;-74
2022/01/05 04:46:00;;;;;;;15.88;10.85;;;0.90;97.90;;;;;;4696248;30;20494;-75
2022/01/05 04:48:26;;;;;;;12.30;11.45;;;0.90;97.90;;;;;;4695366;30;20494;-74
2022/01/05 04:50:52;;;;;;;14.43;13.00;;;0.90;97.90;;;;;;4696377;30;20029;-74
2022/01/05 04:53:18;;;;;;;12.23;11.00;;;0.90;97.90;;;;;;4696439;30;20670;-74
2022/01/05 04:55:44;;;;;;;14.48;12.15;;;0.80;97.90;;;;;;4696530;30;20038;-75
2022/01/05 04:58:10;;;;;;;11.52;10.63;;;0.80;97.90;;;;;;4696351;30;20041;-74
2022/01/05 05:00:36;;;;;;;14.32;12.23;;;0.90;98.00;;;;;;4680579;30;20504;-74
2022/01/05 05:03:03;;;;;;;14.20;12.82;;;0.80;98.00;;;;;;4696209;30;20129;-74
2022/01/05 05:05:29;;;;;;;14.93;13.52;;;0.90;98.00;;;;;;4695033;30;20053;-73
2022/01/05 05:07:54;;;;;;;14.63;12.32;;;0.80;97.90;;;;;;4679651;30;20052;-74
2022/01/05 05:10:20;;;;;;;12.40;10.98;;;0.90;98.00;;;;;;4680476;30;20125;-74
2022/01/05 05:12:46;;;;;;;12.45;11.40;;;0.90;98.00;;;;;;4696040;30;20379;-74
2022/01/05 05:15:12;;;;;;;14.43;9.60;;;0.90;98.10;;;;;;4694849;30;20040;-75
2022/01/05 05:17:37;;;;;;;10.75;8.95;;;1.00;98.20;;;;;;4694932;30;20041;-75
2022/01/05 05:20:04;;;;;;;14.80;8.38;;;1.00;98.20;;;;;;4696482;30;20204;-74
2022/01/05 05:22:30;;;;;;;12.27;9.43;;;1.00;98.10;;;;;;4695862;30;20272;-74
2022/01/05 05:24:55;;;;;;;11.02;10.07;;;1.10;98.10;;;;;;4695894;30;20067;-74
2022/01/05 05:27:22;;;;;;;10.70;9.80;;;1.00;98.00;;;;;;4694788;30;20069;-74
2022/01/05 05:29:47;;;;;;;;;;;1.10;98.00;;;;;;4696392;30;20033;-74
2022/01/05 05:32:13;;;;;;;8.25;7.45;;;1.10;98.10;;;;;;4695772;30;19926;-74
2022/01/05 05:34:39;;;;;;;9.88;6.93;;;1.10;98.00;;;;;;4696158;30;20490;-74
2022/01/05 05:37:05;;;;;;;9.20;7.72;;;1.20;98.10;;;;;;4695831;30;20096;-74
2022/01/05 05:39:31;;;;;;;9.88;8.27;;;1.20;98.10;;;;;;4695918;30;20042;-74
2022/01/05 05:41:56;;;;;;;;;;;1.30;98.10;;;;;;4695994;30;20486;-74
2022/01/05 05:44:22;;;;;;;10.32;7.10;;;1.30;98.10;;;;;;4695656;30;19999;-74
2022/01/05 05:46:48;;;;;;;8.02;7.30;;;1.40;98.10;;;;;;4695417;30;20101;-75
2022/01/05 05:49:14;;;;;;;8.30;7.00;;;1.50;98.20;;;;;;4695411;30;20393;-73
2022/01/05 05:51:40;;;;;;;8.15;7.38;;;1.50;98.20;;;;;;4695402;30;20041;-74
2022/01/05 05:54:06;;;;;;;14.40;7.45;;;1.60;98.20;;;;;;4694200;30;20037;-74
2022/01/05 05:56:31;;;;;;;12.25;6.95;;;1.60;98.20;;;;;;4695472;30;20525;-75
2022/01/05 05:58:57;;;;;;;7.68;6.95;;;1.70;98.10;;;;;;4695447;30;20506;-75
2022/01/05 06:01:23;;;;;;;7.85;7.25;;;1.70;98.10;;;;;;4695276;30;20044;-74
2022/01/05 06:03:48;;;;;;;11.82;8.63;;;1.80;98.10;;;;;;4695317;30;20048;-74
2022/01/05 06:06:14;;;;;;;18.48;9.20;;;1.80;98.10;;;;;;4695093;30;20044;-74
2022/01/05 06:08:40;;;;;;;15.45;8.07;;;1.90;98.10;;;;;;4695371;30;20120;-74
2022/01/05 06:11:07;;;;;;;9.20;8.30;;;1.90;98.10;;;;;;4695111;30;20343;-75
2022/01/05 06:13:33;;;;;;;9.52;8.13;;;1.90;98.00;;;;;;4695032;30;20065;-74
2022/01/05 06:15:58;;;;;;;16.10;8.88;;;2.00;98.00;;;;;;4693694;30;20141;-74
2022/01/05 06:18:24;;;;;;;11.45;8.70;;;2.00;98.00;;;;;;4694864;30;20046;-74
2022/01/05 06:20:50;;;;;;;9.50;8.05;;;2.00;98.00;;;;;;4695141;30;20041;-74
2022/01/05 06:23:16;;;;;;;7.30;6.80;;;2.00;98.00;;;;;;4695077;30;20374;-74
2022/01/05 06:25:41;;;;;;;9.60;8.48;;;2.00;97.90;;;;;;4694919;30;20092;-75
2022/01/05 06:28:11;;;;;;;9.60;8.55;;;2.00;97.90;;;;;;4694965;30;20053;-74
2022/01/05 06:30:38;;;;;;;9.10;8.38;;;2.10;98.00;;;;;;4694553;30;20402;-75
2022/01/05 06:33:05;;;;;;;12.85;8.95;;;2.00;98.00;;;;;;4694982;30;20581;-74
2022/01/05 06:35:30;;;;;;;15.60;9.15;;;2.00;97.90;;;;;;4693699;30;20049;-74
2022/01/05 06:37:56;;;;;;;8.88;8.15;;;2.10;97.90;;;;;;4694855;30;20044;-74
2022/01/05 06:40:23;;;;;;;7.47;6.97;;;2.00;97.90;;;;;;4694877;30;20479;-74
2022/01/05 06:42:49;;;;;;;10.27;8.13;;;2.00;97.90;;;;;;4694755;30;20081;-74
2022/01/05 06:45:14;;;;;;;10.18;8.50;;;2.00;97.90;;;;;;4694556;30;20060;-75
2022/01/05 06:47:40;;;;;;;10.98;8.20;;;2.00;98.00;;;;;;4694315;30;20038;-75
2022/01/05 06:50:08;;;;;;;8.43;7.60;;;2.00;98.00;;;;;;4694134;30;20387;-74
2022/01/05 06:52:34;;;;;;;8.52;7.78;;;2.00;98.00;;;;;;4678260;30;20041;-75
2022/01/05 06:55:00;;;;;;;9.93;8.75;;;1.90;98.10;;;;;;4694814;30;20546;-75
2022/01/05 06:57:25;;;;;;;8.02;7.53;;;2.00;98.10;;;;;;4678987;30;20038;-75
2022/01/05 06:59:51;;;;;;;10.85;7.80;;;2.00;98.10;;;;;;4693326;30;20042;-74
2022/01/05 07:02:17;;;;;;;10.65;7.65;;;2.00;98.10;;;;;;4678945;30;20045;-75
2022/01/05 07:04:43;;;;;;;12.55;6.78;;;2.10;98.10;;;;;;4694615;30;20116;-71
2022/01/05 07:07:08;;;;;;;16.08;6.60;;;2.10;98.10;;;;;;4694439;30;20122;-74
2022/01/05 07:09:34;;;;;;;7.25;6.65;;;2.10;98.10;;;;;;4694341;30;20374;-75
2022/01/05 07:12:00;;;;;;;10.85;7.47;;;2.20;98.10;;;;;;4694476;30;20096;-74
2022/01/05 07:14:26;;;;;;;14.40;7.97;;;2.20;98.10;;;;;;4693309;30;20044;-75
2022/01/05 07:16:52;;;;;;;8.15;7.18;;;2.20;98.10;;;;;;4694323;30;20104;-74
2022/01/05 07:19:19;;;;;;;11.38;7.90;;;2.20;98.10;;;;;;4694505;30;20048;-74
2022/01/05 07:21:48;;;;;;;8.05;7.25;;;2.20;98.10;;;;;;4694391;30;20042;-74
2022/01/05 07:24:17;;;;;;;8.85;7.90;;;2.30;98.10;;;;;;4694512;30;20030;-74
2022/01/05 07:26:44;;;;;;;8.38;7.55;;;2.30;98.10;;;;;;4694293;30;20116;-74
2022/01/05 07:29:12;;;;;;;8.52;7.35;;;2.30;98.10;;;;;;4694124;30;20084;-75
2022/01/05 07:31:37;;;;;;;9.95;7.47;;;2.30;98.10;;;;;;4695989;30;20030;-75
2022/01/05 07:34:03;;;;;;;8.48;6.75;;;2.30;98.10;;;;;;4697648;30;20041;-75
2022/01/05 07:36:29;;;;;;;8.68;7.68;;;2.30;98.30;;;;;;4696328;30;20042;-75
2022/01/05 07:38:54;;;;;;;10.10;7.15;;;2.30;98.10;;;;;;4696219;30;20052;-75
2022/01/05 07:41:20;;;;;;;8.55;7.20;;;2.40;98.10;;;;;;4697447;30;20037;-75
2022/01/05 07:43:46;;;;;;;14.77;7.13;;;2.40;98.10;;;;;;4697386;30;20060;-74
2022/01/05 07:46:11;;;;;;;9.82;6.38;;;2.40;98.00;;;;;;4697131;30;20062;-74
2022/01/05 07:48:37;;;;;;;8.13;7.32;;;2.40;98.00;;;;;;4697705;30;20037;-74
2022/01/05 07:51:03;;;;;;;11.32;7.68;;;2.40;97.90;;;;;;4681583;30;20077;-74
2022/01/05 07:53:29;;;;;;;12.45;8.23;;;2.30;97.90;;;;;;4697185;30;20053;-74
2022/01/05 07:55:55;;;;;;;8.48;7.70;;;2.20;97.90;;;;;;4697252;30;20463;-74
2022/01/05 07:58:23;;;;;;;10.68;9.57;;;2.10;97.90;;;;;;4697004;30;20041;-74
2022/01/05 08:00:48;;;;;;;9.85;8.95;;;2.00;97.90;;;;;;4696984;30;20036;-74
2022/01/05 08:03:14;;;;;;;10.25;9.45;;;1.90;97.90;;;;;;4697193;30;20045;-72
2022/01/05 08:05:40;;;;;;;12.50;9.05;;;1.80;97.90;;;;;;4697049;30;20038;-74
2022/01/05 08:08:05;;;;;;;14.80;9.00;;;1.80;98.00;;;;;;4696018;30;20097;-74
2022/01/05 08:10:31;;;;;;;14.45;7.93;;;1.70;98.10;;;;;;4697024;30;20048;-75
2022/01/05 08:12:57;;;;;;;12.52;8.75;;;1.70;98.10;;;;;;4681568;30;20041;-75
2022/01/05 08:15:22;;;;;;;9.10;8.15;;;1.60;98.10;;;;;;4696771;30;20053;-75
2022/01/05 08:17:48;;;;;;;11.90;8.55;;;1.60;98.20;;;;;;4681179;30;20042;-74
2022/01/05 08:20:14;;;;;;;11.40;9.63;;;1.60;98.20;;;;;;4681062;30;20104;-74
2022/01/05 08:22:45;;;;;;;11.43;9.02;;;1.60;98.20;;;;;;4696779;30;20504;-70
2022/01/05 08:25:16;;;;;;;9.95;8.80;;;1.60;98.30;;;;;;4696673;30;20447;-74
2022/01/05 08:27:46;;;;;;;8.25;7.63;;;1.60;98.30;;;;;;4696695;30;20122;-75
2022/01/05 08:30:25;;;;;;;10.05;8.57;;;1.70;98.40;;;;;;4696572;30;20038;-75
2022/01/05 08:32:52;;;;;;;13.80;9.20;;;1.80;98.50;;;;;;4696619;30;20121;-74
2022/01/05 08:35:21;;;;;;;9.85;8.80;;;1.90;98.50;;;;;;4680693;30;20044;-74
2022/01/05 08:37:48;;;;;;;8.73;7.82;;;2.00;98.50;;;;;;4696631;30;20124;-74
2022/01/05 08:40:16;;;;;;;10.93;8.15;;;2.10;98.40;;;;;;4696335;30;20189;-75
2022/01/05 08:42:42;;;;;;;16.42;8.07;;;2.10;98.40;;;;;;4696452;30;20126;-74
2022/01/05 08:45:10;;;;;;;11.93;7.18;;;2.20;98.40;;;;;;4680493;30;20085;-74
2022/01/05 08:47:35;;;;;;;14.05;8.13;;;2.30;98.60;;;;;;4696456;30;20096;-75
2022/01/05 08:50:02;;;;;;;9.45;7.72;;;2.30;98.30;;;;;;4696508;30;20033;-75
2022/01/05 08:52:28;;;;;;;8.85;7.93;;;2.30;98.20;;;;;;4694701;30;20476;-75
2022/01/05 08:54:53;;;;;;;12.77;8.57;;;2.30;98.20;;;;;;4694517;30;20529;-74
2022/01/05 08:57:19;;;;;;;9.52;8.15;;;2.30;98.10;;;;;;4695992;30;20038;-74
2022/01/05 08:59:47;;;;;;;8.75;7.95;;;2.30;98.00;;;;;;4695725;30;20137;-74
2022/01/05 09:02:15;;;;;;;12.48;9.02;;;2.20;98.00;;;;;;4695942;30;20095;-75
2022/01/05 09:04:41;;;;;;;13.27;9.13;;;2.20;98.10;;;;;;4696031;30;20610;-74
2022/01/05 09:07:07;;;;;;;7.85;7.13;;;2.20;98.20;;;;;;4695777;30;20440;-75
2022/01/05 09:09:33;;;;;;;8.82;6.82;;;2.20;98.40;;;;;;4695937;30;20029;-75
2022/01/05 09:11:59;;;;;;;13.93;6.70;;;2.30;98.50;;;;;;4695898;30;20048;-75
2022/01/05 09:14:25;;;;;;;8.32;5.75;;;2.40;98.60;;;;;;4695893;30;20449;-74
2022/01/05 09:16:52;;;;;;;12.23;6.43;;;2.50;98.80;;;;;;4696038;30;20120;-75
2022/01/05 09:19:18;;;;;;;9.13;6.70;;;2.70;98.80;;;;;;4679947;30;20053;-74
2022/01/05 09:21:48;;;;;;;8.80;6.55;;;2.70;98.60;;;;;;4695620;30;20029;-74
2022/01/05 09:24:15;;;;;;;11.15;6.57;;;2.80;98.60;;;;;;4695571;30;20085;-74
2022/01/05 09:26:41;;;;;;;14.52;7.22;;;2.80;98.50;;;;;;4679879;30;20034;-75
2022/01/05 09:29:07;;;;;;;15.05;7.03;;;2.80;98.40;;;;;;4695750;30;20037;-71
2022/01/05 09:31:33;;;;;;;7.25;6.45;;;2.80;98.40;;;;;;4679614;30;20045;-74
2022/01/05 09:33:58;;;;;;;7.30;6.63;;;2.80;98.40;;;;;;4695377;30;20508;-74
2022/01/05 09:36:33;;;;;;;9.27;7.32;;;2.90;98.50;;;;;;4695091;30;20038;-75
2022/01/05 09:41:56;;;;;;;16.05;4.28;;;3.10;99.00;;;;;;4695241;30;20060;-74
2022/01/05 09:44:28;;;;;;;11.70;4.35;;;3.50;99.50;;;;;;4679548;30;20522;-74
2022/01/05 09:47:20;;;;;;;7.57;4.35;;;4.00;99.60;;;;;;4695068;30;20055;-75
2022/01/05 09:49:57;;;;;;;12.27;5.15;;;4.20;99.00;;;;;;4694916;30;20036;-75
2022/01/05 09:52:23;;;;;;;;;;;4.40;99.00;;;;;;4694993;30;20450;-75
2022/01/05 09:54:50;;;;;;;8.40;3.90;;;4.60;98.90;;;;;;4694486;30;19977;-75
2022/01/05 09:57:18;;;;;;;11.38;5.05;;;4.80;98.70;;;;;;4694383;30;20037;-75
2022/01/05 09:59:45;;;;;;;11.45;4.00;;;4.80;98.40;;;;;;4694749;30;20042;-74
2022/01/05 10:02:14;;;;;;;16.13;3.80;;;4.90;98.60;;;;;;4694806;30;20041;-74
2022/01/05 10:04:41;;;;;;;4.53;2.15;;;5.20;99.10;;;;;;4694624;30;20041;-75
2022/01/05 10:07:09;;;;;;;9.32;4.07;;;5.80;99.40;;;;;;4694281;30;20046;-74
2022/01/05 10:09:37;;;;;;;8.90;2.70;;;6.20;98.50;;;;;;4694034;30;20045;-74
2022/01/05 10:12:04;;;;;;;12.25;4.45;;;6.50;98.80;;;;;;4694055;30;20090;-75
2022/01/05 10:14:30;;;;;;;10.15;3.15;;;7.10;99.00;;;;;;4695185;30;20030;-75
2022/01/05 10:17:28;;;;;;;12.27;3.40;;;7.70;98.60;;;;;;4695775;30;20036;-75
2022/01/05 10:20:06;;;;;;;9.93;2.92;;;8.10;97.80;;;;;;4691679;30;20051;-74
2022/01/05 10:22:37;;;;;;;13.35;3.05;;;8.50;97.90;;;;;;4695216;30;20085;-75
2022/01/05 10:25:23;;;;;;;9.48;2.67;;;9.20;98.00;;;;;;4695403;30;20029;-75
2022/01/05 10:28:00;;;;;;;8.80;2.63;;;9.70;97.00;;;;;;4695406;30;20029;-75
2022/01/05 10:30:38;;;;;;;7.07;2.67;;;9.70;95.90;;;;;;4695408;30;20043;-75
2022/01/05 10:33:04;;;;;;;9.85;3.65;;;10.10;96.20;;;;;;4695445;30;20029;-76
2022/01/05 10:35:30;;;;;;;6.93;2.75;;;10.40;95.90;;;;;;4695374;30;20522;-75
2022/01/05 10:38:12;;;;;;;11.18;2.97;;;10.40;94.70;;;;;;4695024;30;20141;-76
2022/01/05 10:40:40;;;;;;;11.15;3.25;;;10.30;94.20;;;;;;4680189;30;20060;-74
2022/01/05 10:43:11;;;;;;;13.45;3.83;;;10.10;94.00;;;;;;4694957;30;20622;-75
2022/01/05 10:45:48;;;;;;;8.38;3.15;;;9.70;93.60;;;;;;4695004;30;20060;-74
2022/01/05 10:48:24;;;;;;;11.23;2.97;;;9.30;93.20;;;;;;4695373;30;20025;-75
2022/01/05 10:51:25;;;;;;;13.32;3.45;;;8.80;92.70;;;;;;4694035;30;20618;-75
2022/01/05 10:54:12;;;;;;;14.63;3.55;;;8.30;92.90;;;;;;4695190;30;20038;-74
2022/01/05 10:56:38;;;;;;;9.32;3.70;;;7.80;92.90;;;;;;4695166;30;20049;-75
2022/01/05 10:59:04;;;;;;;14.23;3.63;;;7.50;93.00;;;;;;4695093;30;20045;-77
2022/01/05 11:01:30;;;;;;;9.60;3.85;;;7.10;93.00;;;;;;4695267;30;20046;-75
2022/01/05 11:03:56;;;;;;;10.95;4.10;;;6.90;93.20;;;;;;4695291;30;20038;-76
2022/01/05 11:06:22;;;;;;;8.10;3.90;;;6.70;93.40;;;;;;4697146;30;20048;-74
2022/01/05 11:08:52;;;;;;;14.68;4.35;;;6.50;93.50;;;;;;4699069;30;20377;-77
2022/01/05 11:11:37;;;;;;;13.27;4.63;;;6.40;93.50;;;;;;4698765;30;20046;-75
2022/01/05 11:14:06;;;;;;;15.13;4.53;;;6.30;93.70;;;;;;4683002;30;20534;-75
2022/01/05 11:16:32;;;;;;;11.95;3.67;;;6.20;94.00;;;;;;4698098;30;20038;-76
2022/01/05 11:19:36;;;;;;;7.53;4.07;;;6.30;94.20;;;;;;4698635;30;20073;-80
2022/01/05 11:22:12;;;;;;;15.48;4.75;;;6.30;94.20;;;;;;4671389;30;20125;-76
2022/01/05 11:24:53;;;;;;;11.25;3.15;;;6.30;94.10;;;;;;4698689;30;20044;-74
2022/01/05 11:27:29;;;;;;;8.38;3.88;;;6.40;94.20;;;;;;4698526;30;20060;-73
2022/01/05 11:29:57;;;;;;;9.93;3.42;;;6.40;94.20;;;;;;4697827;30;20100;-76
2022/01/05 11:32:26;;;;;;;6.93;3.10;;;6.40;94.10;;;;;;4698525;30;20088;-76
2022/01/05 11:34:52;;;;;;;7.45;3.05;;;6.40;94.10;;;;;;4683286;30;20033;-71
2022/01/05 11:37:19;;;;;;;9.40;3.83;;;6.50;94.20;;;;;;4698281;30;20044;-73
2022/01/05 11:39:48;;;;;;;9.63;3.25;;;6.50;94.20;;;;;;4697805;30;20112;-74
2022/01/05 11:42:18;;;;;;;13.20;3.75;;;6.50;94.20;;;;;;4698060;30;20393;-77
2022/01/05 11:44:54;;;;;;;6.68;2.75;;;6.60;94.30;;;;;;4698550;30;20044;-77
2022/01/05 11:47:26;;;;;;;10.68;3.35;;;6.70;94.30;;;;;;4697946;30;20485;-75
2022/01/05 11:50:14;;;;;;;7.65;3.20;;;6.70;94.20;;;;;;4697997;30;20048;-74
2022/01/05 11:52:58;;;;;;;11.65;3.17;;;6.70;94.30;;;;;;4697881;30;20044;-74
2022/01/05 11:55:24;;;;;;;8.20;3.08;;;6.80;94.30;;;;;;4697598;30;20037;-75
2022/01/05 11:58:16;;;;;;;10.82;4.05;;;6.90;94.20;;;;;;4697778;30;20042;-74
2022/01/05 12:00:44;;;;;;;10.05;3.40;;;6.90;94.20;;;;;;4696834;30;20030;-74
2022/01/05 12:03:09;;;;;;;10.88;3.80;;;6.90;94.20;;;;;;4697573;30;20033;-73
2022/01/05 12:06:04;;;;;;;8.63;3.05;;;7.00;94.30;;;;;;4681830;30;20375;-74
2022/01/05 12:08:46;;;;;;;7.70;3.80;;;7.10;94.40;;;;;;4697524;30;20037;-74
2022/01/05 12:11:54;;;;;;;12.98;4.00;;;7.20;94.40;;;;;;4697301;30;20025;-74
2022/01/05 12:14:19;;;;;;;14.97;4.50;;;7.30;94.60;;;;;;4633303;30;20109;-74
2022/01/05 12:19:27;;;;;;;13.57;4.22;;;7.40;94.10;;;;;;4696679;30;20041;-75
2022/01/05 12:21:55;;;;;;;10.73;3.40;;;7.40;94.20;;;;;;4697243;30;20040;-74
2022/01/05 12:24:21;;;;;;;10.18;4.30;;;7.30;94.10;;;;;;4681201;30;20037;-68
2022/01/05 12:27:16;;;;;;;14.40;4.30;;;7.30;94.10;;;;;;4696920;30;20125;-75
2022/01/05 12:29:43;;;;;;;18.38;7.90;;;7.30;94.10;;;;;;4696933;30;20116;-74
2022/01/05 12:32:09;;;;;;;11.50;4.40;;;7.30;94.10;;;;;;4696679;30;20037;-74
2022/01/05 12:34:54;;;;;;;12.75;3.95;;;7.20;94.20;;;;;;4697265;30;20055;-75
2022/01/05 12:37:40;;;;;;;17.42;4.78;;;7.20;94.00;;;;;;4697192;30;20092;-74
2022/01/05 12:40:26;;;;;;;13.40;4.28;;;7.20;94.10;;;;;;4697046;30;20037;-71
2022/01/05 12:43:10;;;;;;;9.05;4.05;;;7.30;94.20;;;;;;4688036;30;20058;-75
2022/01/05 12:45:47;;;;;;;11.20;4.32;;;7.30;94.10;;;;;;4681591;30;20092;-75
2022/01/05 12:48:39;;;;;;;10.60;3.70;;;7.30;94.00;;;;;;4697022;30;20385;-74
2022/01/05 12:51:17;;;;;;;9.63;3.17;;;7.30;94.20;;;;;;4696812;30;20055;-74
2022/01/05 12:53:53;;;;;;;22.50;7.00;;;7.30;93.90;;;;;;4696096;30;20127;-75
2022/01/05 12:56:23;;;;;;;13.57;3.97;;;7.30;94.00;;;;;;4696654;30;20474;-75
2022/01/05 12:58:51;;;;;;;11.85;3.47;;;7.30;94.00;;;;;;4696689;30;20474;-74
2022/01/05 13:01:18;;;;;;;9.35;3.92;;;7.30;94.10;;;;;;4696055;30;20044;-74